sensor_id;sensor_type;location;lat;lon;timestamp;pressure;altitude;pressure_sealevel;temperature;humidity
22862;BME280;11598;50.652;6.172;2024-03-25T00:02:00;95669.81;;;1.81;100.00
22862;BME280;11598;50.652;6.172;2024-03-25T00:12:01;95678.34;;;1.81;100.00
22862;BME280;11598;50.652;6.172;2024-03-25T00:22:04;95678.19;;;1.84;100.00
22862;BME280;11598;50.652;6.172;2024-03-25T00:32:05;95656.28;;;1.79;100.00
22862;BME280;11598;50.652;6.172;2024-03-25T00:42:06;95668.72;;;1.69;100.00
22862;BME280;11598;50.652;6.172;2024-03-25T00:52:06;95675.63;;;1.51;100.00
22862;BME280;11598;50.652;6.172;2024-03-25T01:02:07;95671.28;;;1.36;100.00
22862;BME280;11598;50.652;6.172;2024-03-25T01:12:08;95674.00;;;1.15;100.00
22862;BME280;11598;50.652;6.172;2024-03-25T01:22:08;95676.72;;;0.95;100.00
22862;BME280;11598;50.652;6.172;2024-03-25T01:32:09;95670.72;;;0.78;100.00
22862;BME280;11598;50.652;6.172;2024-03-25T01:42:09;95682.34;;;0.67;100.00
22862;BME280;11598;50.652;6.172;2024-03-25T01:52:10;95667.59;;;0.54;100.00
22862;BME280;11598;50.652;6.172;2024-03-25T02:02:11;95657.66;;;0.48;100.00
22862;BME280;11598;50.652;6.172;2024-03-25T02:12:12;95664.94;;;0.38;100.00
22862;BME280;11598;50.652;6.172;2024-03-25T02:22:12;95650.78;;;0.31;100.00
22862;BME280;11598;50.652;6.172;2024-03-25T02:32:13;95640.03;;;0.25;100.00
22862;BME280;11598;50.652;6.172;2024-03-25T02:42:13;95629.97;;;0.22;100.00
22862;BME280;11598;50.652;6.172;2024-03-25T02:52:14;95624.09;;;0.19;100.00
22862;BME280;11598;50.652;6.172;2024-03-25T03:02:14;95621.53;;;0.19;100.00
22862;BME280;11598;50.652;6.172;2024-03-25T03:12:14;95613.13;;;0.17;100.00
22862;BME280;11598;50.652;6.172;2024-03-25T03:22:15;95605.53;;;0.16;100.00
22862;BME280;11598;50.652;6.172;2024-03-25T03:32:15;95603.94;;;0.13;100.00
22862;BME280;11598;50.652;6.172;2024-03-25T03:42:15;95601.31;;;0.15;100.00
22862;BME280;11598;50.652;6.172;2024-03-25T03:52:16;95593.56;;;0.16;100.00
22862;BME280;11598;50.652;6.172;2024-03-25T04:02:16;95585.91;;;0.16;100.00
22862;BME280;11598;50.652;6.172;2024-03-25T04:12:16;95584.25;;;0.15;100.00
22862;BME280;11598;50.652;6.172;2024-03-25T04:22:19;95588.00;;;0.08;100.00
22862;BME280;11598;50.652;6.172;2024-03-25T04:32:19;95587.47;;;0.02;100.00
22862;BME280;11598;50.652;6.172;2024-03-25T04:42:21;95583.47;;;-0.04;100.00
22862;BME280;11598;50.652;6.172;2024-03-25T04:52:21;95577.00;;;-0.11;100.00
22862;BME280;11598;50.652;6.172;2024-03-25T05:02:24;95593.28;;;-0.14;100.00
22862;BME280;11598;50.652;6.172;2024-03-25T05:12:24;95589.78;;;-0.11;100.00
22862;BME280;11598;50.652;6.172;2024-03-25T05:22:27;95584.56;;;-0.10;100.00
22862;BME280;11598;50.652;6.172;2024-03-25T05:32:27;95598.03;;;-0.06;100.00
22862;BME280;11598;50.652;6.172;2024-03-25T05:42:28;95598.78;;;0.15;100.00
22862;BME280;11598;50.652;6.172;2024-03-25T05:52:28;95604.66;;;0.34;100.00
22862;BME280;11598;50.652;6.172;2024-03-25T06:02:29;95608.13;;;0.51;100.00
22862;BME280;11598;50.652;6.172;2024-03-25T06:12:30;95603.16;;;0.65;100.00
22862;BME280;11598;50.652;6.172;2024-03-25T06:22:31;95604.13;;;0.80;100.00
22862;BME280;11598;50.652;6.172;2024-03-25T06:32:31;95601.00;;;0.92;100.00
22862;BME280;11598;50.652;6.172;2024-03-25T06:42:50;95602.31;;;1.17;100.00
22862;BME280;11598;50.652;6.172;2024-03-25T06:52:50;95600.81;;;1.62;100.00
22862;BME280;11598;50.652;6.172;2024-03-25T07:02:51;95590.56;;;2.25;100.00
22862;BME280;11598;50.652;6.172;2024-03-25T07:12:51;95596.16;;;2.78;100.00
22862;BME280;11598;50.652;6.172;2024-03-25T07:22:52;95594.28;;;3.10;100.00
22862;BME280;11598;50.652;6.172;2024-03-25T07:32:55;95601.00;;;3.42;100.00
22862;BME280;11598;50.652;6.172;2024-03-25T07:42:56;95589.16;;;3.82;100.00
22862;BME280;11598;50.652;6.172;2024-03-25T07:52:56;95585.16;;;4.05;100.00
22862;BME280;11598;50.652;6.172;2024-03-25T08:02:58;95583.84;;;4.12;100.00
22862;BME280;11598;50.652;6.172;2024-03-25T08:12:58;95580.16;;;4.16;100.00
22862;BME280;11598;50.652;6.172;2024-03-25T08:22:58;95579.88;;;4.21;100.00
22862;BME280;11598;50.652;6.172;2024-03-25T08:32:59;95566.72;;;4.26;100.00
22862;BME280;11598;50.652;6.172;2024-03-25T08:42:59;95571.81;;;4.40;100.00
22862;BME280;11598;50.652;6.172;2024-03-25T08:53:00;95558.34;;;4.49;100.00
22862;BME280;11598;50.652;6.172;2024-03-25T09:03:00;95556.19;;;4.56;100.00
22862;BME280;11598;50.652;6.172;2024-03-25T09:13:00;95551.63;;;4.74;100.00
22862;BME280;11598;50.652;6.172;2024-03-25T09:23:02;95549.16;;;4.85;100.00
22862;BME280;11598;50.652;6.172;2024-03-25T09:33:02;95548.13;;;5.00;100.00
22862;BME280;11598;50.652;6.172;2024-03-25T09:43:05;95537.72;;;5.40;100.00
22862;BME280;11598;50.652;6.172;2024-03-25T09:53:08;95515.69;;;5.73;100.00
22862;BME280;11598;50.652;6.172;2024-03-25T10:03:08;95506.84;;;6.01;100.00
22862;BME280;11598;50.652;6.172;2024-03-25T10:13:09;95497.13;;;6.29;100.00
22862;BME280;11598;50.652;6.172;2024-03-25T10:23:11;95486.06;;;6.16;100.00
22862;BME280;11598;50.652;6.172;2024-03-25T10:33:11;95471.63;;;6.48;100.00
22862;BME280;11598;50.652;6.172;2024-03-25T10:43:12;95469.56;;;6.65;100.00
22862;BME280;11598;50.652;6.172;2024-03-25T10:53:17;95453.38;;;6.51;100.00
22862;BME280;11598;50.652;6.172;2024-03-25T11:03:19;95443.28;;;6.60;100.00
22862;BME280;11598;50.652;6.172;2024-03-25T11:13:21;95443.97;;;6.50;100.00
22862;BME280;11598;50.652;6.172;2024-03-25T11:23:22;95420.75;;;6.62;100.00
22862;BME280;11598;50.652;6.172;2024-03-25T11:33:22;95406.81;;;6.98;100.00
22862;BME280;11598;50.652;6.172;2024-03-25T11:43:24;95388.28;;;7.48;100.00
22862;BME280;11598;50.652;6.172;2024-03-25T11:53:25;95384.59;;;7.73;100.00
22862;BME280;11598;50.652;6.172;2024-03-25T12:03:26;95360.81;;;7.47;100.00
22862;BME280;11598;50.652;6.172;2024-03-25T12:13:26;95359.91;;;7.36;100.00
22862;BME280;11598;50.652;6.172;2024-03-25T12:23:32;95337.94;;;7.31;99.16
22862;BME280;11598;50.652;6.172;2024-03-25T12:33:43;95327.41;;;7.55;95.64
22862;BME280;11598;50.652;6.172;2024-03-25T12:43:44;95289.53;;;7.01;89.46
22862;BME280;11598;50.652;6.172;2024-03-25T12:53:45;95282.41;;;6.82;88.62
22862;BME280;11598;50.652;6.172;2024-03-25T13:03:45;95283.97;;;6.73;90.17
22862;BME280;11598;50.652;6.172;2024-03-25T13:13:45;95266.00;;;6.71;88.70
22862;BME280;11598;50.652;6.172;2024-03-25T13:23:46;95241.22;;;7.24;86.09
22862;BME280;11598;50.652;6.172;2024-03-25T13:33:47;95229.13;;;7.24;79.30
22862;BME280;11598;50.652;6.172;2024-03-25T13:43:47;95209.97;;;7.48;80.12
22862;BME280;11598;50.652;6.172;2024-03-25T13:53:48;95209.09;;;7.58;76.99
22862;BME280;11598;50.652;6.172;2024-03-25T14:03:48;95200.59;;;7.47;75.28
22862;BME280;11598;50.652;6.172;2024-03-25T14:13:48;95181.63;;;7.57;72.92
22862;BME280;11598;50.652;6.172;2024-03-25T14:23:49;95152.91;;;7.51;72.85
22862;BME280;11598;50.652;6.172;2024-03-25T14:33:49;95140.59;;;7.43;74.40
22862;BME280;11598;50.652;6.172;2024-03-25T14:43:49;95116.38;;;7.65;71.90
22862;BME280;11598;50.652;6.172;2024-03-25T14:53:50;95097.94;;;7.49;73.81
22862;BME280;11598;50.652;6.172;2024-03-25T15:03:51;95082.41;;;7.18;72.57
22862;BME280;11598;50.652;6.172;2024-03-25T15:13:52;95058.63;;;7.24;71.25
22862;BME280;11598;50.652;6.172;2024-03-25T15:23:52;95049.47;;;7.41;70.21
22862;BME280;11598;50.652;6.172;2024-03-25T15:33:53;95050.75;;;7.56;70.42
22862;BME280;11598;50.652;6.172;2024-03-25T15:43:53;95038.84;;;7.34;72.63
22862;BME280;11598;50.652;6.172;2024-03-25T15:53:53;95026.38;;;7.18;72.28
22862;BME280;11598;50.652;6.172;2024-03-25T16:03:54;95012.44;;;7.00;73.18
22862;BME280;11598;50.652;6.172;2024-03-25T16:13:55;95010.66;;;7.01;71.55
22862;BME280;11598;50.652;6.172;2024-03-25T16:23:55;95006.19;;;7.03;71.48
22862;BME280;11598;50.652;6.172;2024-03-25T16:33:55;94995.63;;;7.06;72.34
22862;BME280;11598;50.652;6.172;2024-03-25T16:43:56;94982.94;;;7.03;72.70
22862;BME280;11598;50.652;6.172;2024-03-25T16:53:56;94966.09;;;6.98;72.90
22862;BME280;11598;50.652;6.172;2024-03-25T17:03:56;94955.41;;;6.82;73.54
22862;BME280;11598;50.652;6.172;2024-03-25T17:13:57;94948.06;;;6.77;73.15
22862;BME280;11598;50.652;6.172;2024-03-25T17:23:57;94926.66;;;6.66;73.56
22862;BME280;11598;50.652;6.172;2024-03-25T17:33:58;94921.63;;;6.43;75.04
22862;BME280;11598;50.652;6.172;2024-03-25T17:43:58;94913.47;;;6.17;76.52
22862;BME280;11598;50.652;6.172;2024-03-25T17:53:59;94912.63;;;5.96;77.67
22862;BME280;11598;50.652;6.172;2024-03-25T18:03:59;94891.69;;;5.78;78.77
22862;BME280;11598;50.652;6.172;2024-03-25T18:13:59;94895.03;;;5.57;79.94
22862;BME280;11598;50.652;6.172;2024-03-25T18:24:00;94889.09;;;5.45;80.92
22862;BME280;11598;50.652;6.172;2024-03-25T18:34:00;94872.31;;;5.30;81.96
22862;BME280;11598;50.652;6.172;2024-03-25T18:44:02;94872.06;;;5.22;81.64
22862;BME280;11598;50.652;6.172;2024-03-25T18:54:03;94870.81;;;5.16;81.82
22862;BME280;11598;50.652;6.172;2024-03-25T19:04:03;94853.88;;;5.02;82.15
22862;BME280;11598;50.652;6.172;2024-03-25T19:14:06;94843.38;;;4.94;82.52
22862;BME280;11598;50.652;6.172;2024-03-25T19:24:06;94828.63;;;4.85;83.22
22862;BME280;11598;50.652;6.172;2024-03-25T19:34:07;94820.81;;;4.75;84.08
22862;BME280;11598;50.652;6.172;2024-03-25T19:44:07;94808.41;;;4.69;83.62
22862;BME280;11598;50.652;6.172;2024-03-25T19:54:07;94789.81;;;4.65;83.58
22862;BME280;11598;50.652;6.172;2024-03-25T20:04:08;94790.22;;;4.50;84.72
22862;BME280;11598;50.652;6.172;2024-03-25T20:14:08;94782.75;;;4.35;85.20
22862;BME280;11598;50.652;6.172;2024-03-25T20:24:09;94761.94;;;4.27;85.26
22862;BME280;11598;50.652;6.172;2024-03-25T20:34:10;94753.28;;;4.17;85.58
22862;BME280;11598;50.652;6.172;2024-03-25T20:44:10;94749.78;;;4.07;86.18
22862;BME280;11598;50.652;6.172;2024-03-25T20:54:10;94732.25;;;4.00;86.08
22862;BME280;11598;50.652;6.172;2024-03-25T21:04:12;94711.69;;;3.89;85.81
22862;BME280;11598;50.652;6.172;2024-03-25T21:14:12;94710.78;;;3.79;86.17
22862;BME280;11598;50.652;6.172;2024-03-25T21:24:13;94689.88;;;3.72;86.15
22862;BME280;11598;50.652;6.172;2024-03-25T21:34:13;94673.16;;;3.67;85.92
22862;BME280;11598;50.652;6.172;2024-03-25T21:44:13;94665.94;;;3.60;86.72
22862;BME280;11598;50.652;6.172;2024-03-25T21:54:14;94665.94;;;3.60;86.05
22862;BME280;11598;50.652;6.172;2024-03-25T22:04:14;94650.63;;;3.59;85.99
22862;BME280;11598;50.652;6.172;2024-03-25T22:14:14;94636.38;;;3.55;85.46
22862;BME280;11598;50.652;6.172;2024-03-25T22:24:15;94626.69;;;3.47;85.63
22862;BME280;11598;50.652;6.172;2024-03-25T22:34:15;94612.25;;;3.46;85.73
22862;BME280;11598;50.652;6.172;2024-03-25T22:44:15;94587.28;;;3.48;84.72
22862;BME280;11598;50.652;6.172;2024-03-25T22:54:16;94572.34;;;3.53;83.72
22862;BME280;11598;50.652;6.172;2024-03-25T23:04:16;94572.19;;;3.55;84.19
22862;BME280;11598;50.652;6.172;2024-03-25T23:14:17;94566.13;;;3.56;83.86
22862;BME280;11598;50.652;6.172;2024-03-25T23:24:17;94559.59;;;3.52;84.14
22862;BME280;11598;50.652;6.172;2024-03-25T23:34:17;94546.31;;;3.58;84.52
22862;BME280;11598;50.652;6.172;2024-03-25T23:44:18;94549.41;;;3.73;84.50
22862;BME280;11598;50.652;6.172;2024-03-25T23:54:18;94523.72;;;3.84;83.52
